sensor_id;sensor_type;location;lat;lon;timestamp;temperature;humidity
9666;DHT22;4871;52.004;5.924;2023-02-01T00:00:00;4.8;85.6
9666;DHT22;4871;52.004;5.924;2023-02-01T00:01:04;4.8;85.7
9666;DHT22;4871;52.004;5.924;2023-02-01T00:02:01;4.8;85.8
9666;DHT22;4871;52.004;5.924;2023-02-01T00:03:01;4.8;85.8
9666;DHT22;4871;52.004;5.924;2023-02-01T00:04:00;4.8;85.8
9666;DHT22;4871;52.004;5.924;2023-02-01T00:05:00;4.8;85.8
9666;DHT22;4871;52.004;5.924;2023-02-01T00:06:00;4.8;85.8
9666;DHT22;4871;52.004;5.924;2023-02-01T00:07:01;4.8;86.0
9666;DHT22;4871;52.004;5.924;2023-02-01T00:08:00;4.9;85.7
9666;DHT22;4871;52.004;5.924;2023-02-01T00:09:01;4.9;85.6
9666;DHT22;4871;52.004;5.924;2023-02-01T00:10:00;4.9;85.5
9666;DHT22;4871;52.004;5.924;2023-02-01T00:11:04;4.9;85.5
9666;DHT22;4871;52.004;5.924;2023-02-01T00:12:01;4.9;85.7
9666;DHT22;4871;52.004;5.924;2023-02-01T00:13:00;4.9;85.6
9666;DHT22;4871;52.004;5.924;2023-02-01T00:14:00;4.9;85.7
9666;DHT22;4871;52.004;5.924;2023-02-01T00:15:00;4.9;85.5
9666;DHT22;4871;52.004;5.924;2023-02-01T00:16:05;4.9;85.5
9666;DHT22;4871;52.004;5.924;2023-02-01T00:17:01;5.0;85.8
9666;DHT22;4871;52.004;5.924;2023-02-01T00:18:00;4.9;85.6
9666;DHT22;4871;52.004;5.924;2023-02-01T00:19:04;5.0;85.5
9666;DHT22;4871;52.004;5.924;2023-02-01T00:20:00;5.0;85.6
9666;DHT22;4871;52.004;5.924;2023-02-01T00:21:00;5.0;85.4
9666;DHT22;4871;52.004;5.924;2023-02-01T00:22:00;5.0;85.3
9666;DHT22;4871;52.004;5.924;2023-02-01T00:23:00;5.0;85.5
9666;DHT22;4871;52.004;5.924;2023-02-01T00:24:00;5.0;85.4
9666;DHT22;4871;52.004;5.924;2023-02-01T00:25:00;4.9;85.4
9666;DHT22;4871;52.004;5.924;2023-02-01T00:26:04;4.9;85.4
9666;DHT22;4871;52.004;5.924;2023-02-01T00:27:00;4.9;85.5
9666;DHT22;4871;52.004;5.924;2023-02-01T00:28:00;4.9;85.6
9666;DHT22;4871;52.004;5.924;2023-02-01T00:29:03;4.9;85.5
9666;DHT22;4871;52.004;5.924;2023-02-01T00:30:00;4.9;85.5
9666;DHT22;4871;52.004;5.924;2023-02-01T00:31:02;4.9;85.5
9666;DHT22;4871;52.004;5.924;2023-02-01T00:32:00;4.9;85.6
9666;DHT22;4871;52.004;5.924;2023-02-01T00:33:00;4.9;85.6
9666;DHT22;4871;52.004;5.924;2023-02-01T00:34:00;4.9;85.5
9666;DHT22;4871;52.004;5.924;2023-02-01T00:35:00;4.9;85.4
9666;DHT22;4871;52.004;5.924;2023-02-01T00:36:03;5.0;85.5
9666;DHT22;4871;52.004;5.924;2023-02-01T00:37:00;4.9;85.4
9666;DHT22;4871;52.004;5.924;2023-02-01T00:38:00;4.9;85.4
9666;DHT22;4871;52.004;5.924;2023-02-01T00:39:00;4.9;85.5
9666;DHT22;4871;52.004;5.924;2023-02-01T00:40:00;4.9;85.6
9666;DHT22;4871;52.004;5.924;2023-02-01T00:41:06;4.9;85.5
9666;DHT22;4871;52.004;5.924;2023-02-01T00:42:01;4.9;85.4
9666;DHT22;4871;52.004;5.924;2023-02-01T00:43:00;4.9;85.6
9666;DHT22;4871;52.004;5.924;2023-02-01T00:44:01;4.9;85.5
9666;DHT22;4871;52.004;5.924;2023-02-01T00:45:00;4.9;85.4
9666;DHT22;4871;52.004;5.924;2023-02-01T00:46:00;4.9;85.4
9666;DHT22;4871;52.004;5.924;2023-02-01T00:47:00;4.9;85.4
9666;DHT22;4871;52.004;5.924;2023-02-01T00:48:00;4.9;85.3
9666;DHT22;4871;52.004;5.924;2023-02-01T00:49:01;4.9;85.6
9666;DHT22;4871;52.004;5.924;2023-02-01T00:50:00;4.9;85.4
9666;DHT22;4871;52.004;5.924;2023-02-01T00:51:04;4.9;85.5
9666;DHT22;4871;52.004;5.924;2023-02-01T00:52:00;4.9;85.5
9666;DHT22;4871;52.004;5.924;2023-02-01T00:53:00;4.9;85.4
9666;DHT22;4871;52.004;5.924;2023-02-01T00:54:00;4.9;85.4
9666;DHT22;4871;52.004;5.924;2023-02-01T00:55:00;4.9;85.5
9666;DHT22;4871;52.004;5.924;2023-02-01T00:56:01;4.9;85.4
9666;DHT22;4871;52.004;5.924;2023-02-01T00:57:00;4.9;85.5
9666;DHT22;4871;52.004;5.924;2023-02-01T00:58:00;4.9;85.5
9666;DHT22;4871;52.004;5.924;2023-02-01T00:59:03;4.9;85.4
9666;DHT22;4871;52.004;5.924;2023-02-01T01:00:00;5.0;85.3
9666;DHT22;4871;52.004;5.924;2023-02-01T01:01:13;4.9;85.4
9666;DHT22;4871;52.004;5.924;2023-02-01T01:02:00;4.9;85.4
9666;DHT22;4871;52.004;5.924;2023-02-01T01:03:00;4.9;85.5
9666;DHT22;4871;52.004;5.924;2023-02-01T01:04:00;4.9;85.2
9666;DHT22;4871;52.004;5.924;2023-02-01T01:05:00;4.9;85.5
9666;DHT22;4871;52.004;5.924;2023-02-01T01:06:02;4.9;85.5
9666;DHT22;4871;52.004;5.924;2023-02-01T01:07:00;4.9;85.6
9666;DHT22;4871;52.004;5.924;2023-02-01T01:08:00;4.9;85.5
9666;DHT22;4871;52.004;5.924;2023-02-01T01:09:03;4.9;85.4
9666;DHT22;4871;52.004;5.924;2023-02-01T01:10:00;4.9;85.3
9666;DHT22;4871;52.004;5.924;2023-02-01T01:11:09;4.9;85.5
9666;DHT22;4871;52.004;5.924;2023-02-01T01:12:02;4.9;85.5
9666;DHT22;4871;52.004;5.924;2023-02-01T01:13:00;4.9;85.6
9666;DHT22;4871;52.004;5.924;2023-02-01T01:14:00;4.9;85.5
9666;DHT22;4871;52.004;5.924;2023-02-01T01:15:00;4.9;85.4
9666;DHT22;4871;52.004;5.924;2023-02-01T01:16:03;5.0;85.5
9666;DHT22;4871;52.004;5.924;2023-02-01T01:17:00;4.9;85.4
9666;DHT22;4871;52.004;5.924;2023-02-01T01:18:00;4.9;85.5
9666;DHT22;4871;52.004;5.924;2023-02-01T01:19:00;4.9;85.4
9666;DHT22;4871;52.004;5.924;2023-02-01T01:20:00;4.9;85.4
9666;DHT22;4871;52.004;5.924;2023-02-01T01:21:01;5.0;85.5
9666;DHT22;4871;52.004;5.924;2023-02-01T01:22:00;4.9;85.4
9666;DHT22;4871;52.004;5.924;2023-02-01T01:23:00;4.9;85.3
9666;DHT22;4871;52.004;5.924;2023-02-01T01:24:00;5.0;85.3
9666;DHT22;4871;52.004;5.924;2023-02-01T01:25:00;4.9;85.4
9666;DHT22;4871;52.004;5.924;2023-02-01T01:26:00;4.9;85.4
9666;DHT22;4871;52.004;5.924;2023-02-01T01:27:00;5.0;85.4
9666;DHT22;4871;52.004;5.924;2023-02-01T01:28:00;4.9;85.4
9666;DHT22;4871;52.004;5.924;2023-02-01T01:29:00;4.9;85.5
9666;DHT22;4871;52.004;5.924;2023-02-01T01:30:00;4.9;85.4
9666;DHT22;4871;52.004;5.924;2023-02-01T01:31:01;4.9;85.3
9666;DHT22;4871;52.004;5.924;2023-02-01T01:32:00;4.9;85.2
9666;DHT22;4871;52.004;5.924;2023-02-01T01:33:00;4.9;85.4
9666;DHT22;4871;52.004;5.924;2023-02-01T01:34:00;4.9;85.4
9666;DHT22;4871;52.004;5.924;2023-02-01T01:35:01;4.9;85.4
9666;DHT22;4871;52.004;5.924;2023-02-01T01:36:00;4.9;85.3
9666;DHT22;4871;52.004;5.924;2023-02-01T01:37:00;4.9;85.4
9666;DHT22;4871;52.004;5.924;2023-02-01T01:38:00;4.9;85.3
9666;DHT22;4871;52.004;5.924;2023-02-01T01:39:00;4.9;85.5
9666;DHT22;4871;52.004;5.924;2023-02-01T01:40:00;4.9;85.3
9666;DHT22;4871;52.004;5.924;2023-02-01T01:41:01;4.9;85.5
9666;DHT22;4871;52.004;5.924;2023-02-01T01:42:00;4.9;85.4
9666;DHT22;4871;52.004;5.924;2023-02-01T01:43:00;4.9;85.5
9666;DHT22;4871;52.004;5.924;2023-02-01T01:44:02;4.9;85.6
9666;DHT22;4871;52.004;5.924;2023-02-01T01:45:07;4.8;85.4
9666;DHT22;4871;52.004;5.924;2023-02-01T01:46:00;4.8;85.9
9666;DHT22;4871;52.004;5.924;2023-02-01T01:47:00;4.9;85.6
9666;DHT22;4871;52.004;5.924;2023-02-01T01:48:05;4.9;85.4
9666;DHT22;4871;52.004;5.924;2023-02-01T01:49:04;4.9;85.6
9666;DHT22;4871;52.004;5.924;2023-02-01T01:50:01;4.9;85.3
9666;DHT22;4871;52.004;5.924;2023-02-01T01:51:03;4.8;85.5
9666;DHT22;4871;52.004;5.924;2023-02-01T01:52:02;4.8;85.5
9666;DHT22;4871;52.004;5.924;2023-02-01T01:53:03;4.8;85.4
9666;DHT22;4871;52.004;5.924;2023-02-01T01:54:08;4.8;85.6
9666;DHT22;4871;52.004;5.924;2023-02-01T01:55:00;4.8;85.8
9666;DHT22;4871;52.004;5.924;2023-02-01T01:56:00;4.9;85.5
9666;DHT22;4871;52.004;5.924;2023-02-01T01:57:03;4.9;85.6
9666;DHT22;4871;52.004;5.924;2023-02-01T01:58:04;4.9;85.3
9666;DHT22;4871;52.004;5.924;2023-02-01T01:59:02;4.8;85.6
9666;DHT22;4871;52.004;5.924;2023-02-01T02:01:00;4.9;85.5
9666;DHT22;4871;52.004;5.924;2023-02-01T02:02:00;4.9;85.4
9666;DHT22;4871;52.004;5.924;2023-02-01T02:03:05;4.9;85.6
9666;DHT22;4871;52.004;5.924;2023-02-01T02:04:00;4.9;85.4
9666;DHT22;4871;52.004;5.924;2023-02-01T02:05:00;4.9;85.6
9666;DHT22;4871;52.004;5.924;2023-02-01T02:06:02;4.8;85.5
9666;DHT22;4871;52.004;5.924;2023-02-01T02:07:09;4.9;85.5
9666;DHT22;4871;52.004;5.924;2023-02-01T02:08:01;4.9;85.5
9666;DHT22;4871;52.004;5.924;2023-02-01T02:09:01;4.9;85.6
9666;DHT22;4871;52.004;5.924;2023-02-01T02:10:02;4.9;85.8
9666;DHT22;4871;52.004;5.924;2023-02-01T02:11:02;4.9;85.8
9666;DHT22;4871;52.004;5.924;2023-02-01T02:12:00;4.9;85.4
9666;DHT22;4871;52.004;5.924;2023-02-01T02:13:00;4.9;85.5
9666;DHT22;4871;52.004;5.924;2023-02-01T02:14:01;4.9;85.6
9666;DHT22;4871;52.004;5.924;2023-02-01T02:15:00;4.9;85.4
9666;DHT22;4871;52.004;5.924;2023-02-01T02:18:07;4.9;85.4
9666;DHT22;4871;52.004;5.924;2023-02-01T02:19:17;4.9;85.6
9666;DHT22;4871;52.004;5.924;2023-02-01T02:20:15;4.9;85.4
9666;DHT22;4871;52.004;5.924;2023-02-01T02:27:03;4.9;85.3
9666;DHT22;4871;52.004;5.924;2023-02-01T02:31:22;4.9;85.5
9666;DHT22;4871;52.004;5.924;2023-02-01T02:34:09;4.9;85.5
9666;DHT22;4871;52.004;5.924;2023-02-01T02:35:14;4.9;85.6
9666;DHT22;4871;52.004;5.924;2023-02-01T02:36:07;4.9;85.7
9666;DHT22;4871;52.004;5.924;2023-02-01T02:37:04;4.9;85.6
9666;DHT22;4871;52.004;5.924;2023-02-01T02:38:05;4.9;85.5
9666;DHT22;4871;52.004;5.924;2023-02-01T02:39:07;4.9;85.7
9666;DHT22;4871;52.004;5.924;2023-02-01T02:40:14;4.9;85.6
9666;DHT22;4871;52.004;5.924;2023-02-01T02:41:10;4.9;85.6
9666;DHT22;4871;52.004;5.924;2023-02-01T02:42:20;4.9;85.5
9666;DHT22;4871;52.004;5.924;2023-02-01T02:43:22;4.9;85.5
9666;DHT22;4871;52.004;5.924;2023-02-01T02:44:16;4.9;85.5
9666;DHT22;4871;52.004;5.924;2023-02-01T02:45:21;4.9;85.5
9666;DHT22;4871;52.004;5.924;2023-02-01T02:46:19;4.9;85.3
9666;DHT22;4871;52.004;5.924;2023-02-01T02:47:17;4.9;85.5
9666;DHT22;4871;52.004;5.924;2023-02-01T02:48:11;4.9;85.4
9666;DHT22;4871;52.004;5.924;2023-02-01T02:49:05;5.0;85.4
9666;DHT22;4871;52.004;5.924;2023-02-01T02:50:13;5.0;85.4
9666;DHT22;4871;52.004;5.924;2023-02-01T02:51:15;5.0;85.4
9666;DHT22;4871;52.004;5.924;2023-02-01T02:52:13;5.0;85.4
9666;DHT22;4871;52.004;5.924;2023-02-01T02:53:13;5.0;85.4
9666;DHT22;4871;52.004;5.924;2023-02-01T02:54:14;5.0;85.5
9666;DHT22;4871;52.004;5.924;2023-02-01T02:55:01;5.0;85.4
9666;DHT22;4871;52.004;5.924;2023-02-01T02:56:11;5.0;85.4
9666;DHT22;4871;52.004;5.924;2023-02-01T02:57:14;4.9;85.6
9666;DHT22;4871;52.004;5.924;2023-02-01T02:58:10;5.0;85.5
9666;DHT22;4871;52.004;5.924;2023-02-01T02:59:13;5.0;85.3
9666;DHT22;4871;52.004;5.924;2023-02-01T03:00:14;5.0;85.2
9666;DHT22;4871;52.004;5.924;2023-02-01T03:01:10;5.0;85.3
9666;DHT22;4871;52.004;5.924;2023-02-01T03:02:11;5.0;85.4
9666;DHT22;4871;52.004;5.924;2023-02-01T03:03:11;4.9;85.4
9666;DHT22;4871;52.004;5.924;2023-02-01T03:04:03;5.0;85.2
9666;DHT22;4871;52.004;5.924;2023-02-01T03:05:00;5.0;85.3
9666;DHT22;4871;52.004;5.924;2023-02-01T03:06:00;4.9;85.5
9666;DHT22;4871;52.004;5.924;2023-02-01T03:07:15;4.9;85.4
9666;DHT22;4871;52.004;5.924;2023-02-01T03:08:03;5.0;85.3
9666;DHT22;4871;52.004;5.924;2023-02-01T03:09:04;4.9;85.4
9666;DHT22;4871;52.004;5.924;2023-02-01T03:10:07;4.9;85.5
9666;DHT22;4871;52.004;5.924;2023-02-01T03:11:08;5.0;85.6
9666;DHT22;4871;52.004;5.924;2023-02-01T03:12:12;5.0;85.4
9666;DHT22;4871;52.004;5.924;2023-02-01T03:13:08;5.0;85.3
9666;DHT22;4871;52.004;5.924;2023-02-01T03:14:02;5.0;85.3
9666;DHT22;4871;52.004;5.924;2023-02-01T03:15:05;5.0;85.3
9666;DHT22;4871;52.004;5.924;2023-02-01T03:16:07;5.0;85.4
9666;DHT22;4871;52.004;5.924;2023-02-01T03:17:06;5.0;85.5
9666;DHT22;4871;52.004;5.924;2023-02-01T03:18:01;5.0;85.4
9666;DHT22;4871;52.004;5.924;2023-02-01T03:19:06;5.0;85.4
9666;DHT22;4871;52.004;5.924;2023-02-01T03:20:02;4.9;85.4
9666;DHT22;4871;52.004;5.924;2023-02-01T03:21:02;4.9;85.5
9666;DHT22;4871;52.004;5.924;2023-02-01T03:22:04;5.0;85.4
9666;DHT22;4871;52.004;5.924;2023-02-01T03:23:01;5.0;85.5
9666;DHT22;4871;52.004;5.924;2023-02-01T03:24:03;5.0;85.4
9666;DHT22;4871;52.004;5.924;2023-02-01T03:25:05;4.9;85.3
9666;DHT22;4871;52.004;5.924;2023-02-01T03:26:01;4.9;85.4
9666;DHT22;4871;52.004;5.924;2023-02-01T03:27:05;4.9;85.4
9666;DHT22;4871;52.004;5.924;2023-02-01T03:28:04;4.9;85.3
9666;DHT22;4871;52.004;5.924;2023-02-01T03:29:07;4.9;85.4
9666;DHT22;4871;52.004;5.924;2023-02-01T03:30:07;4.9;85.4
9666;DHT22;4871;52.004;5.924;2023-02-01T03:31:01;4.9;85.4
9666;DHT22;4871;52.004;5.924;2023-02-01T03:32:00;4.9;85.4
9666;DHT22;4871;52.004;5.924;2023-02-01T03:33:03;4.9;85.4
9666;DHT22;4871;52.004;5.924;2023-02-01T03:34:00;4.9;85.5
9666;DHT22;4871;52.004;5.924;2023-02-01T03:35:05;4.9;85.4
9666;DHT22;4871;52.004;5.924;2023-02-01T03:36:09;4.9;85.4
9666;DHT22;4871;52.004;5.924;2023-02-01T03:37:06;4.8;85.6
9666;DHT22;4871;52.004;5.924;2023-02-01T03:40:05;4.9;85.5
9666;DHT22;4871;52.004;5.924;2023-02-01T03:41:08;4.9;85.7
9666;DHT22;4871;52.004;5.924;2023-02-01T03:42:03;4.9;85.6
9666;DHT22;4871;52.004;5.924;2023-02-01T03:43:02;4.9;85.4
9666;DHT22;4871;52.004;5.924;2023-02-01T03:44:04;4.9;85.5
9666;DHT22;4871;52.004;5.924;2023-02-01T03:45:06;4.9;85.4
9666;DHT22;4871;52.004;5.924;2023-02-01T03:46:03;4.9;85.3
9666;DHT22;4871;52.004;5.924;2023-02-01T03:47:04;4.9;85.5
9666;DHT22;4871;52.004;5.924;2023-02-01T03:48:01;4.9;85.5
9666;DHT22;4871;52.004;5.924;2023-02-01T03:49:02;4.9;85.6
9666;DHT22;4871;52.004;5.924;2023-02-01T03:50:10;4.9;85.6
9666;DHT22;4871;52.004;5.924;2023-02-01T03:51:03;4.9;85.5
9666;DHT22;4871;52.004;5.924;2023-02-01T03:52:01;4.9;85.7
9666;DHT22;4871;52.004;5.924;2023-02-01T03:53:04;4.9;85.6
9666;DHT22;4871;52.004;5.924;2023-02-01T03:54:01;4.9;85.6
9666;DHT22;4871;52.004;5.924;2023-02-01T03:55:01;4.9;85.6
9666;DHT22;4871;52.004;5.924;2023-02-01T03:56:00;4.9;85.6
9666;DHT22;4871;52.004;5.924;2023-02-01T03:57:05;5.0;85.5
9666;DHT22;4871;52.004;5.924;2023-02-01T03:58:11;5.0;85.4
9666;DHT22;4871;52.004;5.924;2023-02-01T03:59:00;5.0;85.6
9666;DHT22;4871;52.004;5.924;2023-02-01T04:00:07;5.0;85.6
9666;DHT22;4871;52.004;5.924;2023-02-01T04:01:00;5.0;85.6
9666;DHT22;4871;52.004;5.924;2023-02-01T04:02:00;5.0;85.6
9666;DHT22;4871;52.004;5.924;2023-02-01T04:03:02;5.0;85.5
9666;DHT22;4871;52.004;5.924;2023-02-01T04:04:00;5.0;85.5
9666;DHT22;4871;52.004;5.924;2023-02-01T04:05:00;5.0;85.6
9666;DHT22;4871;52.004;5.924;2023-02-01T04:06:00;5.0;85.5
9666;DHT22;4871;52.004;5.924;2023-02-01T04:07:00;5.0;85.4
9666;DHT22;4871;52.004;5.924;2023-02-01T04:08:00;5.0;85.5
9666;DHT22;4871;52.004;5.924;2023-02-01T04:09:00;5.0;85.4
9666;DHT22;4871;52.004;5.924;2023-02-01T04:10:00;5.0;85.5
9666;DHT22;4871;52.004;5.924;2023-02-01T04:11:00;5.0;85.5
9666;DHT22;4871;52.004;5.924;2023-02-01T04:12:00;5.0;85.4
9666;DHT22;4871;52.004;5.924;2023-02-01T04:13:00;5.0;85.5
9666;DHT22;4871;52.004;5.924;2023-02-01T04:14:04;5.0;85.5
9666;DHT22;4871;52.004;5.924;2023-02-01T04:15:00;4.9;85.5
9666;DHT22;4871;52.004;5.924;2023-02-01T04:16:00;4.9;85.6
9666;DHT22;4871;52.004;5.924;2023-02-01T04:17:00;4.9;85.8
9666;DHT22;4871;52.004;5.924;2023-02-01T04:18:00;4.9;85.6
9666;DHT22;4871;52.004;5.924;2023-02-01T04:19:02;5.0;85.5
9666;DHT22;4871;52.004;5.924;2023-02-01T04:20:00;4.9;85.6
9666;DHT22;4871;52.004;5.924;2023-02-01T04:21:02;4.9;85.6
9666;DHT22;4871;52.004;5.924;2023-02-01T04:22:00;4.9;85.6
9666;DHT22;4871;52.004;5.924;2023-02-01T04:23:02;4.9;85.7
9666;DHT22;4871;52.004;5.924;2023-02-01T04:24:00;4.9;85.7
9666;DHT22;4871;52.004;5.924;2023-02-01T04:25:01;4.9;85.7
9666;DHT22;4871;52.004;5.924;2023-02-01T04:26:02;4.9;85.7
9666;DHT22;4871;52.004;5.924;2023-02-01T04:27:02;4.9;85.7
9666;DHT22;4871;52.004;5.924;2023-02-01T04:28:00;5.0;85.5
9666;DHT22;4871;52.004;5.924;2023-02-01T04:29:00;4.9;85.7
9666;DHT22;4871;52.004;5.924;2023-02-01T04:30:01;5.0;85.6
9666;DHT22;4871;52.004;5.924;2023-02-01T04:31:00;4.9;85.7
9666;DHT22;4871;52.004;5.924;2023-02-01T04:32:00;5.0;85.6
9666;DHT22;4871;52.004;5.924;2023-02-01T04:33:03;5.0;85.6
9666;DHT22;4871;52.004;5.924;2023-02-01T04:34:00;5.0;85.7
9666;DHT22;4871;52.004;5.924;2023-02-01T04:35:00;5.0;85.5
9666;DHT22;4871;52.004;5.924;2023-02-01T04:36:00;5.0;85.6
9666;DHT22;4871;52.004;5.924;2023-02-01T04:37:00;5.0;85.6
9666;DHT22;4871;52.004;5.924;2023-02-01T04:38:00;5.0;85.5
9666;DHT22;4871;52.004;5.924;2023-02-01T04:39:00;5.0;85.4
9666;DHT22;4871;52.004;5.924;2023-02-01T04:40:00;5.0;85.5
9666;DHT22;4871;52.004;5.924;2023-02-01T04:41:00;5.0;85.5
9666;DHT22;4871;52.004;5.924;2023-02-01T04:42:00;5.0;85.6
9666;DHT22;4871;52.004;5.924;2023-02-01T04:43:00;5.0;85.7
9666;DHT22;4871;52.004;5.924;2023-02-01T04:44:00;5.0;85.6
9666;DHT22;4871;52.004;5.924;2023-02-01T04:45:00;5.0;85.5
9666;DHT22;4871;52.004;5.924;2023-02-01T04:46:00;5.1;85.4
9666;DHT22;4871;52.004;5.924;2023-02-01T04:47:00;5.1;85.4
9666;DHT22;4871;52.004;5.924;2023-02-01T04:48:00;5.1;85.6
9666;DHT22;4871;52.004;5.924;2023-02-01T04:49:00;5.1;85.5
9666;DHT22;4871;52.004;5.924;2023-02-01T04:50:00;5.1;85.5
9666;DHT22;4871;52.004;5.924;2023-02-01T04:51:00;5.1;85.5
9666;DHT22;4871;52.004;5.924;2023-02-01T04:52:00;5.1;85.5
9666;DHT22;4871;52.004;5.924;2023-02-01T04:53:00;5.1;85.5
9666;DHT22;4871;52.004;5.924;2023-02-01T04:54:00;5.1;85.5
9666;DHT22;4871;52.004;5.924;2023-02-01T04:55:03;5.1;85.7
9666;DHT22;4871;52.004;5.924;2023-02-01T04:56:00;5.1;85.7
9666;DHT22;4871;52.004;5.924;2023-02-01T04:57:00;5.1;85.7
9666;DHT22;4871;52.004;5.924;2023-02-01T04:58:00;5.1;85.6
9666;DHT22;4871;52.004;5.924;2023-02-01T04:59:02;5.1;85.6
9666;DHT22;4871;52.004;5.924;2023-02-01T05:00:00;5.1;85.7
9666;DHT22;4871;52.004;5.924;2023-02-01T05:01:04;5.1;85.7
9666;DHT22;4871;52.004;5.924;2023-02-01T05:02:00;5.1;85.6
9666;DHT22;4871;52.004;5.924;2023-02-01T05:03:00;5.2;85.6
9666;DHT22;4871;52.004;5.924;2023-02-01T05:04:00;5.2;85.5
9666;DHT22;4871;52.004;5.924;2023-02-01T05:05:01;5.2;85.6
9666;DHT22;4871;52.004;5.924;2023-02-01T05:06:00;5.2;85.8
9666;DHT22;4871;52.004;5.924;2023-02-01T05:07:03;5.2;85.8
9666;DHT22;4871;52.004;5.924;2023-02-01T05:08:00;5.2;85.6
9666;DHT22;4871;52.004;5.924;2023-02-01T05:09:00;5.2;85.6
9666;DHT22;4871;52.004;5.924;2023-02-01T05:10:00;5.2;85.5
9666;DHT22;4871;52.004;5.924;2023-02-01T05:11:02;5.2;85.8
9666;DHT22;4871;52.004;5.924;2023-02-01T05:12:10;5.2;85.8
9666;DHT22;4871;52.004;5.924;2023-02-01T05:13:11;5.2;85.6
9666;DHT22;4871;52.004;5.924;2023-02-01T05:14:00;5.2;85.8
9666;DHT22;4871;52.004;5.924;2023-02-01T05:15:00;5.3;85.7
9666;DHT22;4871;52.004;5.924;2023-02-01T05:16:00;5.3;85.7
9666;DHT22;4871;52.004;5.924;2023-02-01T05:17:00;5.3;85.4
9666;DHT22;4871;52.004;5.924;2023-02-01T05:18:00;5.3;85.6
9666;DHT22;4871;52.004;5.924;2023-02-01T05:19:00;5.3;85.4
9666;DHT22;4871;52.004;5.924;2023-02-01T05:20:00;5.3;85.6
9666;DHT22;4871;52.004;5.924;2023-02-01T05:21:01;5.3;85.6
9666;DHT22;4871;52.004;5.924;2023-02-01T05:22:00;5.3;85.6
9666;DHT22;4871;52.004;5.924;2023-02-01T05:23:00;5.3;85.7
9666;DHT22;4871;52.004;5.924;2023-02-01T05:24:10;5.3;85.5
9666;DHT22;4871;52.004;5.924;2023-02-01T05:25:01;5.4;85.7
9666;DHT22;4871;52.004;5.924;2023-02-01T05:26:01;5.4;85.6
9666;DHT22;4871;52.004;5.924;2023-02-01T05:27:00;5.4;85.6
9666;DHT22;4871;52.004;5.924;2023-02-01T05:28:00;5.4;85.6
9666;DHT22;4871;52.004;5.924;2023-02-01T05:29:01;5.4;85.5
9666;DHT22;4871;52.004;5.924;2023-02-01T05:30:00;5.4;85.4
9666;DHT22;4871;52.004;5.924;2023-02-01T05:31:09;5.4;85.3
9666;DHT22;4871;52.004;5.924;2023-02-01T05:32:00;5.4;85.6
9666;DHT22;4871;52.004;5.924;2023-02-01T05:33:02;5.4;85.3
9666;DHT22;4871;52.004;5.924;2023-02-01T05:34:00;5.4;85.6
9666;DHT22;4871;52.004;5.924;2023-02-01T05:35:00;5.5;85.5
9666;DHT22;4871;52.004;5.924;2023-02-01T05:36:00;5.4;85.6
9666;DHT22;4871;52.004;5.924;2023-02-01T05:37:00;5.4;85.8
9666;DHT22;4871;52.004;5.924;2023-02-01T05:38:00;5.5;85.3
9666;DHT22;4871;52.004;5.924;2023-02-01T05:39:00;5.5;85.7
9666;DHT22;4871;52.004;5.924;2023-02-01T05:40:00;5.5;85.5
9666;DHT22;4871;52.004;5.924;2023-02-01T05:41:00;5.5;85.4
9666;DHT22;4871;52.004;5.924;2023-02-01T05:42:00;5.5;85.5
9666;DHT22;4871;52.004;5.924;2023-02-01T05:43:01;5.5;85.5
9666;DHT22;4871;52.004;5.924;2023-02-01T05:44:00;5.5;85.5
9666;DHT22;4871;52.004;5.924;2023-02-01T05:45:05;5.5;85.6
9666;DHT22;4871;52.004;5.924;2023-02-01T05:46:00;5.5;85.3
9666;DHT22;4871;52.004;5.924;2023-02-01T05:47:01;5.5;85.4
9666;DHT22;4871;52.004;5.924;2023-02-01T05:48:00;5.5;85.7
9666;DHT22;4871;52.004;5.924;2023-02-01T05:49:03;5.5;85.6
9666;DHT22;4871;52.004;5.924;2023-02-01T05:50:00;5.5;85.4
9666;DHT22;4871;52.004;5.924;2023-02-01T05:51:00;5.6;85.6
9666;DHT22;4871;52.004;5.924;2023-02-01T05:52:00;5.5;85.6
9666;DHT22;4871;52.004;5.924;2023-02-01T05:53:00;5.6;85.7
9666;DHT22;4871;52.004;5.924;2023-02-01T05:54:00;5.6;85.6
9666;DHT22;4871;52.004;5.924;2023-02-01T05:55:01;5.6;85.3
9666;DHT22;4871;52.004;5.924;2023-02-01T05:56:00;5.6;85.6
9666;DHT22;4871;52.004;5.924;2023-02-01T05:57:00;5.6;85.7
9666;DHT22;4871;52.004;5.924;2023-02-01T05:58:00;5.6;85.6
9666;DHT22;4871;52.004;5.924;2023-02-01T05:59:00;5.6;85.6
9666;DHT22;4871;52.004;5.924;2023-02-01T06:00:00;5.6;85.4
9666;DHT22;4871;52.004;5.924;2023-02-01T06:01:01;5.6;85.4
9666;DHT22;4871;52.004;5.924;2023-02-01T06:02:00;5.7;85.3
9666;DHT22;4871;52.004;5.924;2023-02-01T06:03:01;5.6;85.0
9666;DHT22;4871;52.004;5.924;2023-02-01T06:04:00;5.6;85.4
9666;DHT22;4871;52.004;5.924;2023-02-01T06:05:00;5.6;85.1
9666;DHT22;4871;52.004;5.924;2023-02-01T06:06:01;5.7;85.3
9666;DHT22;4871;52.004;5.924;2023-02-01T06:07:00;5.6;85.2
9666;DHT22;4871;52.004;5.924;2023-02-01T06:08:00;5.6;85.7
9666;DHT22;4871;52.004;5.924;2023-02-01T06:09:00;5.6;85.5
9666;DHT22;4871;52.004;5.924;2023-02-01T06:10:00;5.6;85.6
9666;DHT22;4871;52.004;5.924;2023-02-01T06:11:04;5.7;85.4
9666;DHT22;4871;52.004;5.924;2023-02-01T06:12:01;5.7;85.1
9666;DHT22;4871;52.004;5.924;2023-02-01T06:13:00;5.7;85.2
9666;DHT22;4871;52.004;5.924;2023-02-01T06:14:00;5.7;85.4
9666;DHT22;4871;52.004;5.924;2023-02-01T06:15:00;5.7;85.2
9666;DHT22;4871;52.004;5.924;2023-02-01T06:16:01;5.7;85.4
9666;DHT22;4871;52.004;5.924;2023-02-01T06:17:00;5.7;85.4
9666;DHT22;4871;52.004;5.924;2023-02-01T06:18:00;5.7;85.6
9666;DHT22;4871;52.004;5.924;2023-02-01T06:19:00;5.7;85.3
9666;DHT22;4871;52.004;5.924;2023-02-01T06:20:00;5.7;85.4
9666;DHT22;4871;52.004;5.924;2023-02-01T06:21:02;5.7;85.6
9666;DHT22;4871;52.004;5.924;2023-02-01T06:22:00;5.7;85.3
9666;DHT22;4871;52.004;5.924;2023-02-01T06:23:04;5.7;85.4
9666;DHT22;4871;52.004;5.924;2023-02-01T06:24:00;5.7;85.5
9666;DHT22;4871;52.004;5.924;2023-02-01T06:25:03;5.7;85.3
9666;DHT22;4871;52.004;5.924;2023-02-01T06:26:04;5.7;85.2
9666;DHT22;4871;52.004;5.924;2023-02-01T06:27:00;5.7;85.4
9666;DHT22;4871;52.004;5.924;2023-02-01T06:28:00;5.7;85.2
9666;DHT22;4871;52.004;5.924;2023-02-01T06:29:00;5.8;85.4
9666;DHT22;4871;52.004;5.924;2023-02-01T06:30:00;5.7;85.4
9666;DHT22;4871;52.004;5.924;2023-02-01T06:31:05;5.8;85.4
9666;DHT22;4871;52.004;5.924;2023-02-01T06:32:00;5.8;85.5
9666;DHT22;4871;52.004;5.924;2023-02-01T06:33:01;5.8;85.4
9666;DHT22;4871;52.004;5.924;2023-02-01T06:34:00;5.8;85.5
9666;DHT22;4871;52.004;5.924;2023-02-01T06:35:02;5.8;85.6
9666;DHT22;4871;52.004;5.924;2023-02-01T06:36:01;5.8;85.4
9666;DHT22;4871;52.004;5.924;2023-02-01T06:37:00;5.7;85.5
9666;DHT22;4871;52.004;5.924;2023-02-01T06:38:00;5.8;85.4
9666;DHT22;4871;52.004;5.924;2023-02-01T06:39:02;5.8;85.2
9666;DHT22;4871;52.004;5.924;2023-02-01T06:40:00;5.8;85.4
9666;DHT22;4871;52.004;5.924;2023-02-01T06:41:01;5.8;85.2
9666;DHT22;4871;52.004;5.924;2023-02-01T06:42:00;5.8;85.2
9666;DHT22;4871;52.004;5.924;2023-02-01T06:43:00;5.8;85.0
9666;DHT22;4871;52.004;5.924;2023-02-01T06:44:00;5.8;85.3
9666;DHT22;4871;52.004;5.924;2023-02-01T06:45:00;5.8;85.4
9666;DHT22;4871;52.004;5.924;2023-02-01T06:46:03;5.8;85.4
9666;DHT22;4871;52.004;5.924;2023-02-01T06:47:00;5.8;85.3
9666;DHT22;4871;52.004;5.924;2023-02-01T06:48:00;5.8;85.1
9666;DHT22;4871;52.004;5.924;2023-02-01T06:49:00;5.8;85.3
9666;DHT22;4871;52.004;5.924;2023-02-01T06:50:00;5.9;85.2
9666;DHT22;4871;52.004;5.924;2023-02-01T06:51:00;5.9;85.0
9666;DHT22;4871;52.004;5.924;2023-02-01T06:52:00;5.8;85.3
9666;DHT22;4871;52.004;5.924;2023-02-01T06:53:00;5.8;85.3
9666;DHT22;4871;52.004;5.924;2023-02-01T06:54:00;5.9;85.4
9666;DHT22;4871;52.004;5.924;2023-02-01T06:55:00;5.9;85.3
9666;DHT22;4871;52.004;5.924;2023-02-01T06:56:02;5.9;85.4
9666;DHT22;4871;52.004;5.924;2023-02-01T06:57:00;5.9;85.4
9666;DHT22;4871;52.004;5.924;2023-02-01T06:58:02;5.9;85.4
9666;DHT22;4871;52.004;5.924;2023-02-01T06:59:03;5.9;85.3
9666;DHT22;4871;52.004;5.924;2023-02-01T07:00:02;5.9;85.1
9666;DHT22;4871;52.004;5.924;2023-02-01T07:01:05;5.9;85.2
9666;DHT22;4871;52.004;5.924;2023-02-01T07:02:00;5.9;85.0
9666;DHT22;4871;52.004;5.924;2023-02-01T07:03:01;5.9;85.1
9666;DHT22;4871;52.004;5.924;2023-02-01T07:04:00;5.9;85.3
9666;DHT22;4871;52.004;5.924;2023-02-01T07:05:00;5.9;85.1
9666;DHT22;4871;52.004;5.924;2023-02-01T07:06:00;5.9;85.4
9666;DHT22;4871;52.004;5.924;2023-02-01T07:07:01;5.9;85.3